sensor_id;sensor_type;location;lat;lon;timestamp;pressure;altitude;pressure_sealevel;temperature;humidity
64200;BME280;50516;52.272;5.136;2022-08-06T00:00:45;102623.09;;;15.21;66.80
64200;BME280;50516;52.272;5.136;2022-08-06T00:03:10;102620.88;;;15.23;66.71
64200;BME280;50516;52.272;5.136;2022-08-06T00:05:36;102621.34;;;15.15;67.14
64200;BME280;50516;52.272;5.136;2022-08-06T00:08:03;102631.03;;;15.18;66.93
64200;BME280;50516;52.272;5.136;2022-08-06T00:10:29;102622.38;;;15.09;67.27
64200;BME280;50516;52.272;5.136;2022-08-06T00:12:54;102634.31;;;15.14;67.06
64200;BME280;50516;52.272;5.136;2022-08-06T00:15:20;102625.78;;;15.16;66.96
64200;BME280;50516;52.272;5.136;2022-08-06T00:17:46;102623.34;;;15.20;66.87
64200;BME280;50516;52.272;5.136;2022-08-06T00:20:13;102630.47;;;15.15;67.03
64200;BME280;50516;52.272;5.136;2022-08-06T00:22:39;102633.81;;;15.18;66.95
64200;BME280;50516;52.272;5.136;2022-08-06T00:25:05;102646.50;;;15.13;67.14
64200;BME280;50516;52.272;5.136;2022-08-06T00:27:33;102634.28;;;15.09;67.35
64200;BME280;50516;52.272;5.136;2022-08-06T00:29:58;102642.84;;;15.08;67.27
64200;BME280;50516;52.272;5.136;2022-08-06T00:32:24;102641.94;;;15.02;67.32
64200;BME280;50516;52.272;5.136;2022-08-06T00:34:49;102643.56;;;14.98;67.50
64200;BME280;50516;52.272;5.136;2022-08-06T00:37:15;102649.59;;;14.95;67.71
64200;BME280;50516;52.272;5.136;2022-08-06T00:39:40;102643.22;;;14.94;67.79
64200;BME280;50516;52.272;5.136;2022-08-06T00:42:06;102661.16;;;14.92;67.95
64200;BME280;50516;52.272;5.136;2022-08-06T00:44:31;102658.03;;;14.83;67.98
64200;BME280;50516;52.272;5.136;2022-08-06T00:46:58;102653.66;;;14.87;67.99
64200;BME280;50516;52.272;5.136;2022-08-06T00:49:23;102658.66;;;14.90;67.58
64200;BME280;50516;52.272;5.136;2022-08-06T00:51:49;102662.78;;;14.88;67.85
64200;BME280;50516;52.272;5.136;2022-08-06T00:54:14;102667.22;;;14.89;68.07
64200;BME280;50516;52.272;5.136;2022-08-06T00:56:40;102665.25;;;14.84;68.03
64200;BME280;50516;52.272;5.136;2022-08-06T00:59:05;102669.09;;;14.83;68.02
64200;BME280;50516;52.272;5.136;2022-08-06T01:01:31;102662.72;;;14.83;68.15
64200;BME280;50516;52.272;5.136;2022-08-06T01:03:56;102672.94;;;14.82;68.14
64200;BME280;50516;52.272;5.136;2022-08-06T01:06:22;102678.97;;;14.79;68.19
64200;BME280;50516;52.272;5.136;2022-08-06T01:08:48;102680.84;;;14.73;68.04
64200;BME280;50516;52.272;5.136;2022-08-06T01:11:13;102678.41;;;14.77;68.21
64200;BME280;50516;52.272;5.136;2022-08-06T01:13:39;102684.19;;;14.75;68.34
64200;BME280;50516;52.272;5.136;2022-08-06T01:16:12;102686.06;;;14.70;68.31
64200;BME280;50516;52.272;5.136;2022-08-06T01:18:51;102681.69;;;14.74;68.26
64200;BME280;50516;52.272;5.136;2022-08-06T01:21:40;102682.00;;;14.77;68.12
64200;BME280;50516;52.272;5.136;2022-08-06T01:29:36;102689.84;;;14.64;68.57
64200;BME280;50516;52.272;5.136;2022-08-06T01:32:14;102681.72;;;14.57;68.53
64200;BME280;50516;52.272;5.136;2022-08-06T01:34:59;102688.06;;;14.57;68.53
64200;BME280;50516;52.272;5.136;2022-08-06T01:37:41;102696.59;;;14.56;68.71
64200;BME280;50516;52.272;5.136;2022-08-06T01:40:13;102689.94;;;14.52;68.65
64200;BME280;50516;52.272;5.136;2022-08-06T01:42:40;102689.38;;;14.55;68.51
64200;BME280;50516;52.272;5.136;2022-08-06T01:45:10;102688.31;;;14.56;68.52
64200;BME280;50516;52.272;5.136;2022-08-06T01:47:38;102693.84;;;14.56;68.70
64200;BME280;50516;52.272;5.136;2022-08-06T01:50:05;102693.34;;;14.59;68.81
64200;BME280;50516;52.272;5.136;2022-08-06T01:52:33;102697.69;;;14.55;69.17
64200;BME280;50516;52.272;5.136;2022-08-06T01:55:02;102700.44;;;14.55;69.14
64200;BME280;50516;52.272;5.136;2022-08-06T01:57:31;102696.53;;;14.51;68.99
64200;BME280;50516;52.272;5.136;2022-08-06T01:59:59;102690.88;;;14.40;69.23
64200;BME280;50516;52.272;5.136;2022-08-06T02:02:27;102696.22;;;14.47;69.10
64200;BME280;50516;52.272;5.136;2022-08-06T02:04:57;102696.41;;;14.40;68.98
64200;BME280;50516;52.272;5.136;2022-08-06T02:07:28;102699.16;;;14.40;69.18
64200;BME280;50516;52.272;5.136;2022-08-06T02:09:58;102697.47;;;14.39;69.09
64200;BME280;50516;52.272;5.136;2022-08-06T02:12:26;102699.06;;;14.35;69.54
64200;BME280;50516;52.272;5.136;2022-08-06T02:15:14;102701.31;;;14.38;69.74
64200;BME280;50516;52.272;5.136;2022-08-06T02:17:46;102696.28;;;14.35;69.83
64200;BME280;50516;52.272;5.136;2022-08-06T02:20:15;102699.06;;;14.35;69.84
64200;BME280;50516;52.272;5.136;2022-08-06T02:22:44;102704.69;;;14.23;70.45
64200;BME280;50516;52.272;5.136;2022-08-06T02:25:12;102697.06;;;14.14;71.01
64200;BME280;50516;52.272;5.136;2022-08-06T02:27:41;102703.50;;;14.19;70.49
64200;BME280;50516;52.272;5.136;2022-08-06T02:30:10;102701.16;;;14.11;70.21
64200;BME280;50516;52.272;5.136;2022-08-06T02:32:36;102705.28;;;14.09;70.33
64200;BME280;50516;52.272;5.136;2022-08-06T02:35:01;102704.84;;;14.17;70.56
64200;BME280;50516;52.272;5.136;2022-08-06T02:37:42;102697.50;;;14.05;70.43
64200;BME280;50516;52.272;5.136;2022-08-06T02:40:11;102693.38;;;14.08;70.56
64200;BME280;50516;52.272;5.136;2022-08-06T02:42:49;102703.78;;;14.18;70.40
64200;BME280;50516;52.272;5.136;2022-08-06T02:45:19;102696.13;;;14.08;70.37
64200;BME280;50516;52.272;5.136;2022-08-06T02:50:18;102705.69;;;14.17;70.58
64200;BME280;50516;52.272;5.136;2022-08-06T02:52:49;102709.72;;;14.27;70.61
64200;BME280;50516;52.272;5.136;2022-08-06T02:55:23;102707.53;;;14.29;70.55
64200;BME280;50516;52.272;5.136;2022-08-06T02:57:56;102707.94;;;14.37;70.68
64200;BME280;50516;52.272;5.136;2022-08-06T03:00:22;102710.84;;;14.48;70.61
64200;BME280;50516;52.272;5.136;2022-08-06T03:02:54;102703.41;;;14.48;70.87
64200;BME280;50516;52.272;5.136;2022-08-06T03:05:21;102704.81;;;14.51;70.63
64200;BME280;50516;52.272;5.136;2022-08-06T03:07:49;102714.28;;;14.55;71.01
64200;BME280;50516;52.272;5.136;2022-08-06T03:10:21;102703.22;;;14.55;71.16
64200;BME280;50516;52.272;5.136;2022-08-06T03:12:47;102707.16;;;14.59;71.39
64200;BME280;50516;52.272;5.136;2022-08-06T03:15:15;102719.81;;;14.55;72.11
64200;BME280;50516;52.272;5.136;2022-08-06T03:17:43;102715.31;;;14.49;71.79
64200;BME280;50516;52.272;5.136;2022-08-06T03:20:11;102715.22;;;14.43;71.61
64200;BME280;50516;52.272;5.136;2022-08-06T03:22:38;102720.97;;;14.42;71.47
64200;BME280;50516;52.272;5.136;2022-08-06T03:25:07;102722.53;;;14.33;71.99
64200;BME280;50516;52.272;5.136;2022-08-06T03:27:35;102721.16;;;14.35;71.48
64200;BME280;50516;52.272;5.136;2022-08-06T03:30:02;102725.09;;;14.39;71.51
64200;BME280;50516;52.272;5.136;2022-08-06T03:32:28;102717.91;;;14.38;71.55
64200;BME280;50516;52.272;5.136;2022-08-06T03:34:54;102729.94;;;14.32;71.56
64200;BME280;50516;52.272;5.136;2022-08-06T03:37:21;102736.34;;;14.33;71.63
64200;BME280;50516;52.272;5.136;2022-08-06T03:39:48;102734.06;;;14.30;71.66
64200;BME280;50516;52.272;5.136;2022-08-06T03:42:15;102735.06;;;14.23;71.58
64200;BME280;50516;52.272;5.136;2022-08-06T03:44:40;102735.50;;;14.15;71.90
64200;BME280;50516;52.272;5.136;2022-08-06T03:47:13;102728.53;;;14.13;71.94
64200;BME280;50516;52.272;5.136;2022-08-06T03:49:46;102728.63;;;14.18;71.81
64200;BME280;50516;52.272;5.136;2022-08-06T03:52:16;102730.78;;;14.16;71.87
64200;BME280;50516;52.272;5.136;2022-08-06T03:54:48;102730.63;;;14.22;72.26
64200;BME280;50516;52.272;5.136;2022-08-06T03:57:18;102719.25;;;14.19;72.05
64200;BME280;50516;52.272;5.136;2022-08-06T03:59:46;102736.94;;;14.18;71.60
64200;BME280;50516;52.272;5.136;2022-08-06T04:02:14;102742.59;;;14.11;71.76
64200;BME280;50516;52.272;5.136;2022-08-06T04:04:41;102741.69;;;14.05;71.68
64200;BME280;50516;52.272;5.136;2022-08-06T04:07:08;102740.50;;;14.01;72.03
64200;BME280;50516;52.272;5.136;2022-08-06T04:09:34;102740.72;;;14.00;71.99
64200;BME280;50516;52.272;5.136;2022-08-06T04:12:01;102740.50;;;14.01;71.81
64200;BME280;50516;52.272;5.136;2022-08-06T04:14:28;102735.13;;;13.95;72.09
64200;BME280;50516;52.272;5.136;2022-08-06T04:16:53;102745.69;;;13.98;71.93
64200;BME280;50516;52.272;5.136;2022-08-06T04:19:20;102744.00;;;13.97;72.21
64200;BME280;50516;52.272;5.136;2022-08-06T04:21:46;102752.41;;;14.02;72.42
64200;BME280;50516;52.272;5.136;2022-08-06T04:24:12;102751.53;;;14.01;72.12
64200;BME280;50516;52.272;5.136;2022-08-06T04:26:40;102750.47;;;14.02;72.19
64200;BME280;50516;52.272;5.136;2022-08-06T04:29:10;102746.72;;;14.09;72.13
64200;BME280;50516;52.272;5.136;2022-08-06T04:31:37;102759.41;;;14.10;71.58
64200;BME280;50516;52.272;5.136;2022-08-06T04:34:03;102753.38;;;14.13;71.38
64200;BME280;50516;52.272;5.136;2022-08-06T04:36:29;102754.25;;;14.13;71.16
64200;BME280;50516;52.272;5.136;2022-08-06T04:38:56;102755.25;;;14.24;71.75
64200;BME280;50516;52.272;5.136;2022-08-06T04:41:22;102764.78;;;14.33;71.13
64200;BME280;50516;52.272;5.136;2022-08-06T04:43:48;102757.59;;;14.32;70.92
64200;BME280;50516;52.272;5.136;2022-08-06T04:46:14;102757.44;;;14.39;70.58
64200;BME280;50516;52.272;5.136;2022-08-06T04:48:39;102766.97;;;14.48;70.36
64200;BME280;50516;52.272;5.136;2022-08-06T04:51:05;102760.53;;;14.59;69.80
64200;BME280;50516;52.272;5.136;2022-08-06T04:53:39;102763.97;;;14.67;69.50
64200;BME280;50516;52.272;5.136;2022-08-06T04:56:09;102767.41;;;14.74;69.22
64200;BME280;50516;52.272;5.136;2022-08-06T04:58:35;102763.94;;;14.84;68.83
64200;BME280;50516;52.272;5.136;2022-08-06T05:01:01;102776.00;;;14.94;68.47
64200;BME280;50516;52.272;5.136;2022-08-06T05:03:28;102772.59;;;15.09;68.11
64200;BME280;50516;52.272;5.136;2022-08-06T05:08:23;102781.91;;;15.42;67.36
64200;BME280;50516;52.272;5.136;2022-08-06T05:11:06;102777.38;;;15.58;66.96
64200;BME280;50516;52.272;5.136;2022-08-06T05:13:36;102790.91;;;15.77;66.63
64200;BME280;50516;52.272;5.136;2022-08-06T05:16:06;102793.56;;;15.94;66.56
64200;BME280;50516;52.272;5.136;2022-08-06T05:18:37;102797.34;;;16.10;65.94
64200;BME280;50516;52.272;5.136;2022-08-06T05:21:05;102794.47;;;16.27;65.51
64200;BME280;50516;52.272;5.136;2022-08-06T05:23:37;102796.22;;;16.38;65.74
64200;BME280;50516;52.272;5.136;2022-08-06T05:26:04;102796.84;;;16.50;65.82
64200;BME280;50516;52.272;5.136;2022-08-06T05:28:30;102799.72;;;16.60;65.56
64200;BME280;50516;52.272;5.136;2022-08-06T05:30:56;102799.53;;;16.72;65.53
64200;BME280;50516;52.272;5.136;2022-08-06T05:33:29;102797.41;;;16.85;64.92
64200;BME280;50516;52.272;5.136;2022-08-06T05:35:57;102806.66;;;16.95;64.96
64200;BME280;50516;52.272;5.136;2022-08-06T05:38:22;102809.22;;;17.07;64.67
64200;BME280;50516;52.272;5.136;2022-08-06T05:40:48;102812.88;;;17.18;64.73
64200;BME280;50516;52.272;5.136;2022-08-06T05:43:15;102807.97;;;17.30;64.55
64200;BME280;50516;52.272;5.136;2022-08-06T05:45:41;102808.84;;;17.41;64.29
64200;BME280;50516;52.272;5.136;2022-08-06T05:48:07;102809.72;;;17.52;64.14
64200;BME280;50516;52.272;5.136;2022-08-06T05:50:37;102805.31;;;17.61;64.17
64200;BME280;50516;52.272;5.136;2022-08-06T05:53:11;102822.03;;;17.72;64.14
64200;BME280;50516;52.272;5.136;2022-08-06T05:55:48;102812.34;;;17.84;64.04
64200;BME280;50516;52.272;5.136;2022-08-06T05:58:24;102811.00;;;17.97;63.89
64200;BME280;50516;52.272;5.136;2022-08-06T06:00:53;102807.13;;;18.09;63.87
64200;BME280;50516;52.272;5.136;2022-08-06T06:03:19;102814.94;;;18.22;64.02
64200;BME280;50516;52.272;5.136;2022-08-06T06:05:49;102820.50;;;18.32;64.11
64200;BME280;50516;52.272;5.136;2022-08-06T06:08:14;102814.97;;;18.42;64.01
64200;BME280;50516;52.272;5.136;2022-08-06T06:10:40;102819.41;;;18.54;64.02
64200;BME280;50516;52.272;5.136;2022-08-06T06:13:06;102827.47;;;18.60;64.29
64200;BME280;50516;52.272;5.136;2022-08-06T06:15:40;102824.13;;;18.69;64.01
64200;BME280;50516;52.272;5.136;2022-08-06T06:18:20;102832.75;;;18.67;63.70
64200;BME280;50516;52.272;5.136;2022-08-06T06:21:09;102829.94;;;18.77;63.61
64200;BME280;50516;52.272;5.136;2022-08-06T06:23:49;102836.63;;;18.97;63.52
64200;BME280;50516;52.272;5.136;2022-08-06T06:29:32;102834.94;;;19.22;63.37
64200;BME280;50516;52.272;5.136;2022-08-06T06:32:27;102842.97;;;19.28;63.50
64200;BME280;50516;52.272;5.136;2022-08-06T06:34:54;102841.25;;;19.38;63.29
64200;BME280;50516;52.272;5.136;2022-08-06T06:37:29;102840.66;;;19.46;61.23
64200;BME280;50516;52.272;5.136;2022-08-06T06:40:09;102844.81;;;19.53;61.30
64200;BME280;50516;52.272;5.136;2022-08-06T06:42:42;102849.84;;;19.57;60.20
64200;BME280;50516;52.272;5.136;2022-08-06T06:45:24;102848.97;;;19.61;61.12
64200;BME280;50516;52.272;5.136;2022-08-06T06:50:32;102850.31;;;19.79;59.54
64200;BME280;50516;52.272;5.136;2022-08-06T06:52:58;102848.97;;;19.77;59.63
64200;BME280;50516;52.272;5.136;2022-08-06T06:55:36;102854.47;;;19.87;60.27
64200;BME280;50516;52.272;5.136;2022-08-06T06:58:33;102850.00;;;19.91;58.04
64200;BME280;50516;52.272;5.136;2022-08-06T07:01:01;102854.41;;;20.02;58.99
64200;BME280;50516;52.272;5.136;2022-08-06T07:03:29;102850.03;;;19.81;59.06
64200;BME280;50516;52.272;5.136;2022-08-06T07:05:59;102851.84;;;20.06;57.91
64200;BME280;50516;52.272;5.136;2022-08-06T07:08:28;102852.09;;;20.10;57.10
64200;BME280;50516;52.272;5.136;2022-08-06T07:10:55;102863.50;;;20.13;57.12
64200;BME280;50516;52.272;5.136;2022-08-06T07:13:21;102860.19;;;20.11;56.93
64200;BME280;50516;52.272;5.136;2022-08-06T07:15:49;102854.53;;;19.77;56.94
64200;BME280;50516;52.272;5.136;2022-08-06T07:18:17;102861.88;;;20.12;56.74
64200;BME280;50516;52.272;5.136;2022-08-06T07:20:43;102861.50;;;20.24;56.58
64200;BME280;50516;52.272;5.136;2022-08-06T07:23:09;102865.44;;;20.18;54.50
64200;BME280;50516;52.272;5.136;2022-08-06T07:25:44;102869.59;;;20.25;54.09
64200;BME280;50516;52.272;5.136;2022-08-06T07:28:11;102870.63;;;20.35;54.63
64200;BME280;50516;52.272;5.136;2022-08-06T07:30:40;102864.44;;;20.38;54.53
64200;BME280;50516;52.272;5.136;2022-08-06T07:33:06;102869.47;;;20.41;52.55
64200;BME280;50516;52.272;5.136;2022-08-06T07:35:34;102876.03;;;20.21;51.90
64200;BME280;50516;52.272;5.136;2022-08-06T07:38:02;102881.28;;;19.67;51.62
64200;BME280;50516;52.272;5.136;2022-08-06T07:40:33;102871.19;;;19.87;51.75
64200;BME280;50516;52.272;5.136;2022-08-06T07:43:05;102877.50;;;20.08;51.34
64200;BME280;50516;52.272;5.136;2022-08-06T07:45:32;102876.78;;;20.32;50.43
64200;BME280;50516;52.272;5.136;2022-08-06T07:48:00;102879.09;;;20.19;50.06
64200;BME280;50516;52.272;5.136;2022-08-06T07:50:30;102881.88;;;20.19;51.05
64200;BME280;50516;52.272;5.136;2022-08-06T07:52:57;102882.41;;;20.21;49.95
64200;BME280;50516;52.272;5.136;2022-08-06T07:55:24;102881.09;;;20.53;49.71
64200;BME280;50516;52.272;5.136;2022-08-06T07:57:55;102887.88;;;20.42;50.00
64200;BME280;50516;52.272;5.136;2022-08-06T08:00:25;102893.22;;;20.38;48.98
64200;BME280;50516;52.272;5.136;2022-08-06T08:02:52;102891.00;;;20.75;49.71
64200;BME280;50516;52.272;5.136;2022-08-06T08:05:37;102891.22;;;21.13;48.68
64200;BME280;50516;52.272;5.136;2022-08-06T08:08:22;102892.66;;;20.76;49.91
64200;BME280;50516;52.272;5.136;2022-08-06T08:10:48;102897.63;;;21.13;49.78
64200;BME280;50516;52.272;5.136;2022-08-06T08:13:15;102891.31;;;21.32;49.46
64200;BME280;50516;52.272;5.136;2022-08-06T08:15:44;102894.72;;;21.53;48.58
64200;BME280;50516;52.272;5.136;2022-08-06T08:18:10;102892.03;;;21.67;48.16
64200;BME280;50516;52.272;5.136;2022-08-06T08:20:38;102888.69;;;21.65;48.89
64200;BME280;50516;52.272;5.136;2022-08-06T08:23:05;102900.66;;;20.88;48.84
64200;BME280;50516;52.272;5.136;2022-08-06T08:25:32;102897.94;;;20.38;49.59
64200;BME280;50516;52.272;5.136;2022-08-06T08:27:58;102900.06;;;20.12;51.79
64200;BME280;50516;52.272;5.136;2022-08-06T08:30:24;102898.28;;;20.71;50.13
64200;BME280;50516;52.272;5.136;2022-08-06T08:32:49;102896.41;;;20.95;49.80
64200;BME280;50516;52.272;5.136;2022-08-06T08:35:15;102899.06;;;21.11;49.49
64200;BME280;50516;52.272;5.136;2022-08-06T08:37:41;102899.25;;;21.44;48.50
64200;BME280;50516;52.272;5.136;2022-08-06T08:40:07;102892.94;;;21.33;48.73
64200;BME280;50516;52.272;5.136;2022-08-06T08:42:48;102896.59;;;21.33;48.50
64200;BME280;50516;52.272;5.136;2022-08-06T08:45:18;102898.28;;;21.29;48.92
64200;BME280;50516;52.272;5.136;2022-08-06T08:47:46;102903.88;;;21.59;46.87
64200;BME280;50516;52.272;5.136;2022-08-06T08:50:16;102894.19;;;21.51;48.08
64200;BME280;50516;52.272;5.136;2022-08-06T08:52:44;102903.13;;;21.53;47.25
64200;BME280;50516;52.272;5.136;2022-08-06T08:55:12;102892.53;;;20.91;48.86
64200;BME280;50516;52.272;5.136;2022-08-06T08:57:39;102901.25;;;21.43;47.96
64200;BME280;50516;52.272;5.136;2022-08-06T09:00:06;102896.69;;;21.23;47.72
64200;BME280;50516;52.272;5.136;2022-08-06T09:02:32;102897.91;;;21.65;46.66
64200;BME280;50516;52.272;5.136;2022-08-06T09:04:58;102890.38;;;21.66;47.14
64200;BME280;50516;52.272;5.136;2022-08-06T09:07:24;102896.19;;;21.69;47.05
64200;BME280;50516;52.272;5.136;2022-08-06T09:09:51;102899.56;;;21.91;45.88
64200;BME280;50516;52.272;5.136;2022-08-06T09:12:17;102894.19;;;21.94;45.52
64200;BME280;50516;52.272;5.136;2022-08-06T09:14:43;102898.09;;;22.17;45.69
64200;BME280;50516;52.272;5.136;2022-08-06T09:17:11;102899.00;;;22.32;45.97
64200;BME280;50516;52.272;5.136;2022-08-06T09:19:37;102901.06;;;22.45;45.30
64200;BME280;50516;52.272;5.136;2022-08-06T09:22:03;102899.47;;;22.58;44.77
64200;BME280;50516;52.272;5.136;2022-08-06T09:24:29;102898.69;;;22.33;45.01
64200;BME280;50516;52.272;5.136;2022-08-06T09:27:16;102902.06;;;21.92;44.62
64200;BME280;50516;52.272;5.136;2022-08-06T09:29:53;102900.59;;;22.19;44.79
64200;BME280;50516;52.272;5.136;2022-08-06T09:32:43;102900.22;;;22.45;44.93
64200;BME280;50516;52.272;5.136;2022-08-06T09:35:19;102900.59;;;22.57;44.14
64200;BME280;50516;52.272;5.136;2022-08-06T09:37:45;102895.50;;;22.59;45.00
64200;BME280;50516;52.272;5.136;2022-08-06T09:40:16;102895.53;;;22.92;44.54
64200;BME280;50516;52.272;5.136;2022-08-06T09:42:44;102898.25;;;22.64;43.69
64200;BME280;50516;52.272;5.136;2022-08-06T09:45:13;102903.41;;;22.38;43.87
64200;BME280;50516;52.272;5.136;2022-08-06T09:47:40;102899.66;;;22.23;44.84
64200;BME280;50516;52.272;5.136;2022-08-06T09:50:06;102900.56;;;22.00;44.99
64200;BME280;50516;52.272;5.136;2022-08-06T09:52:32;102906.56;;;21.88;45.58
64200;BME280;50516;52.272;5.136;2022-08-06T09:54:58;102908.47;;;21.74;44.95
64200;BME280;50516;52.272;5.136;2022-08-06T09:57:26;102911.28;;;22.36;45.19
64200;BME280;50516;52.272;5.136;2022-08-06T09:59:52;102911.25;;;22.74;44.49
64200;BME280;50516;52.272;5.136;2022-08-06T10:02:19;102907.03;;;22.38;45.25
64200;BME280;50516;52.272;5.136;2022-08-06T10:04:47;102904.16;;;22.63;44.77
64200;BME280;50516;52.272;5.136;2022-08-06T10:07:13;102906.41;;;22.60;44.87
64200;BME280;50516;52.272;5.136;2022-08-06T10:09:53;102903.91;;;22.59;43.77
64200;BME280;50516;52.272;5.136;2022-08-06T10:12:23;102902.91;;;23.02;43.39
64200;BME280;50516;52.272;5.136;2022-08-06T10:14:48;102915.34;;;22.95;43.50
64200;BME280;50516;52.272;5.136;2022-08-06T10:17:16;102909.72;;;23.28;42.64
64200;BME280;50516;52.272;5.136;2022-08-06T10:19:43;102896.25;;;23.30;42.42
64200;BME280;50516;52.272;5.136;2022-08-06T10:22:17;102905.28;;;23.55;42.84
64200;BME280;50516;52.272;5.136;2022-08-06T10:24:46;102907.16;;;23.60;41.00
64200;BME280;50516;52.272;5.136;2022-08-06T10:27:16;102906.44;;;23.68;40.55
64200;BME280;50516;52.272;5.136;2022-08-06T10:29:51;102915.34;;;23.98;40.40
64200;BME280;50516;52.272;5.136;2022-08-06T10:32:23;102901.66;;;23.96;40.18
64200;BME280;50516;52.272;5.136;2022-08-06T10:34:51;102902.94;;;24.27;40.74
64200;BME280;50516;52.272;5.136;2022-08-06T10:37:19;102907.19;;;23.87;40.72
64200;BME280;50516;52.272;5.136;2022-08-06T10:39:51;102901.44;;;23.65;41.17
64200;BME280;50516;52.272;5.136;2022-08-06T10:42:20;102903.94;;;23.39;42.18
64200;BME280;50516;52.272;5.136;2022-08-06T10:44:47;102906.06;;;23.14;41.98
64200;BME280;50516;52.272;5.136;2022-08-06T10:47:13;102902.16;;;22.96;42.62
64200;BME280;50516;52.272;5.136;2022-08-06T10:49:39;102905.84;;;23.10;42.03
64200;BME280;50516;52.272;5.136;2022-08-06T10:52:05;102916.75;;;22.79;42.36
64200;BME280;50516;52.272;5.136;2022-08-06T10:54:30;102910.16;;;23.03;41.39
64200;BME280;50516;52.272;5.136;2022-08-06T10:56:56;102905.09;;;23.05;40.63
64200;BME280;50516;52.272;5.136;2022-08-06T10:59:22;102907.44;;;23.17;40.67
64200;BME280;50516;52.272;5.136;2022-08-06T11:05:08;102897.09;;;23.31;39.80
64200;BME280;50516;52.272;5.136;2022-08-06T11:15:49;102900.84;;;23.40;40.33
64200;BME280;50516;52.272;5.136;2022-08-06T11:18:15;102894.91;;;23.56;39.79
64200;BME280;50516;52.272;5.136;2022-08-06T11:20:48;102886.91;;;23.35;39.45
64200;BME280;50516;52.272;5.136;2022-08-06T11:25:41;102888.72;;;22.46;40.36
64200;BME280;50516;52.272;5.136;2022-08-06T11:28:08;102886.41;;;22.67;39.75
64200;BME280;50516;52.272;5.136;2022-08-06T11:33:05;102878.78;;;22.54;39.92
64200;BME280;50516;52.272;5.136;2022-08-06T11:41:09;102884.84;;;22.61;40.76
64200;BME280;50516;52.272;5.136;2022-08-06T11:44:14;102889.47;;;22.85;40.33
64200;BME280;50516;52.272;5.136;2022-08-06T11:46:39;102882.66;;;22.91;38.94
64200;BME280;50516;52.272;5.136;2022-08-06T11:49:19;102886.56;;;23.09;38.77
64200;BME280;50516;52.272;5.136;2022-08-06T11:57:22;102880.78;;;23.19;38.77
64200;BME280;50516;52.272;5.136;2022-08-06T12:05:31;102881.94;;;23.32;38.75
64200;BME280;50516;52.272;5.136;2022-08-06T12:08:21;102885.84;;;23.17;38.84
64200;BME280;50516;52.272;5.136;2022-08-06T12:11:29;102876.41;;;23.13;37.20
64200;BME280;50516;52.272;5.136;2022-08-06T12:13:56;102882.31;;;23.11;38.69
64200;BME280;50516;52.272;5.136;2022-08-06T12:16:39;102879.00;;;23.09;39.60
64200;BME280;50516;52.272;5.136;2022-08-06T12:19:10;102869.47;;;22.91;38.50
64200;BME280;50516;52.272;5.136;2022-08-06T12:21:36;102866.19;;;23.03;38.70
64200;BME280;50516;52.272;5.136;2022-08-06T12:24:04;102865.75;;;22.96;39.30
64200;BME280;50516;52.272;5.136;2022-08-06T12:26:31;102863.25;;;22.81;38.24
64200;BME280;50516;52.272;5.136;2022-08-06T12:29:00;102854.28;;;22.78;39.08
64200;BME280;50516;52.272;5.136;2022-08-06T12:31:32;102856.47;;;23.14;39.28
64200;BME280;50516;52.272;5.136;2022-08-06T12:33:59;102858.66;;;23.18;38.81
64200;BME280;50516;52.272;5.136;2022-08-06T12:36:26;102855.94;;;23.12;38.67
64200;BME280;50516;52.272;5.136;2022-08-06T12:38:55;102856.94;;;22.89;38.93
64200;BME280;50516;52.272;5.136;2022-08-06T12:41:21;102851.94;;;22.86;38.72
64200;BME280;50516;52.272;5.136;2022-08-06T12:43:47;102862.78;;;23.06;38.74
64200;BME280;50516;52.272;5.136;2022-08-06T12:46:12;102853.78;;;23.23;38.40
64200;BME280;50516;52.272;5.136;2022-08-06T12:48:45;102859.06;;;23.52;38.27
64200;BME280;50516;52.272;5.136;2022-08-06T12:51:12;102856.28;;;23.39;38.07
64200;BME280;50516;52.272;5.136;2022-08-06T12:54:03;102861.56;;;23.54;38.02
64200;BME280;50516;52.272;5.136;2022-08-06T12:56:30;102849.00;;;23.24;37.95
64200;BME280;50516;52.272;5.136;2022-08-06T12:58:56;102847.03;;;23.38;38.06
64200;BME280;50516;52.272;5.136;2022-08-06T13:01:24;102845.50;;;23.32;37.73
64200;BME280;50516;52.272;5.136;2022-08-06T13:03:53;102846.59;;;23.73;37.39
64200;BME280;50516;52.272;5.136;2022-08-06T13:06:23;102839.34;;;23.30;38.09
64200;BME280;50516;52.272;5.136;2022-08-06T13:08:50;102855.56;;;23.47;37.64
64200;BME280;50516;52.272;5.136;2022-08-06T13:11:16;102843.50;;;23.19;38.56
64200;BME280;50516;52.272;5.136;2022-08-06T13:13:46;102847.56;;;23.26;38.19
64200;BME280;50516;52.272;5.136;2022-08-06T13:16:13;102853.69;;;23.56;38.11
64200;BME280;50516;52.272;5.136;2022-08-06T13:18:41;102850.34;;;23.26;37.19
64200;BME280;50516;52.272;5.136;2022-08-06T13:21:18;102848.13;;;22.95;38.24
64200;BME280;50516;52.272;5.136;2022-08-06T13:23:48;102840.91;;;23.50;38.45
64200;BME280;50516;52.272;5.136;2022-08-06T13:26:23;102845.28;;;23.14;38.36
64200;BME280;50516;52.272;5.136;2022-08-06T13:29:10;102846.19;;;22.63;38.64
64200;BME280;50516;52.272;5.136;2022-08-06T13:31:38;102839.78;;;22.43;39.30
64200;BME280;50516;52.272;5.136;2022-08-06T13:34:06;102839.41;;;22.50;39.16
64200;BME280;50516;52.272;5.136;2022-08-06T13:36:33;102840.94;;;22.75;39.60
64200;BME280;50516;52.272;5.136;2022-08-06T13:39:17;102842.16;;;22.69;39.44
64200;BME280;50516;52.272;5.136;2022-08-06T13:41:42;102836.81;;;22.87;39.06
64200;BME280;50516;52.272;5.136;2022-08-06T13:44:26;102838.34;;;23.26;39.18
64200;BME280;50516;52.272;5.136;2022-08-06T13:46:51;102837.28;;;23.36;39.30
64200;BME280;50516;52.272;5.136;2022-08-06T13:49:17;102835.31;;;23.08;39.01
64200;BME280;50516;52.272;5.136;2022-08-06T13:51:42;102840.59;;;23.10;39.47